Time;durP1;ratioP1;P1;durP2;ratioP2;P2;SDS_P1;SDS_P2;PMS_P1;PMS_P2;Temp;Humidity;BMP_temperature;BMP_pressure;BME280_temperature;BME280_humidity;BME280_pressure;Samples;Min_cycle;Max_cycle;Signal;HPM_P1;HPM_P2
2022/01/28 01:10:23;;;;;;;;;68.25;55.00;;;;;;;;5163748;27;13319;-80
2022/01/28 01:12:48;;;;;;;;;61.33;49.33;;;;;;;;5164435;27;11397;-80
2022/01/28 01:15:19;;;;;;;;;67.67;53.00;;;;;;;;5164902;27;12416;-80
2022/01/28 01:17:59;;;;;;;;;58.67;49.33;;;;;;;;5164526;27;12488;-81
2022/01/28 01:25:43;;;;;;;;;50.33;40.67;;;;;;;;5165648;27;10400;-80
2022/01/28 01:28:09;;;;;;;;;58.33;46.33;;;;;;;;5164834;27;13295;-80
2022/01/28 01:30:39;;;;;;;;;63.00;49.00;;;;;;;;5164919;27;11670;-81
2022/01/28 01:33:05;;;;;;;;;56.00;47.00;;;;;;;;5164642;27;14769;-81
2022/01/28 01:35:32;;;;;;;;;58.00;48.33;;;;;;;;5165453;27;10373;-82
2022/01/28 01:37:57;;;;;;;;;60.33;48.00;;;;;;;;5165839;27;11462;-81
2022/01/28 01:40:28;;;;;;;;;63.00;49.33;;;;;;;;5164857;27;14372;-81
2022/01/28 01:43:06;;;;;;;;;53.33;44.67;;;;;;;;5165756;27;11663;-82
2022/01/28 01:53:25;;;;;;;;;48.00;42.67;;;;;;;;5164057;27;10961;-80
2022/01/28 01:55:51;;;;;;;;;58.67;44.00;;;;;;;;5147362;27;13634;-81
2022/01/28 01:58:19;;;;;;;;;51.33;43.67;;;;;;;;5170688;27;13277;-80
2022/01/28 02:00:45;;;;;;;;;48.00;41.00;;;;;;;;5172692;27;12570;-80
2022/01/28 02:03:10;;;;;;;;;49.67;40.00;;;;;;;;5173672;27;13256;-81
2022/01/28 02:05:35;;;;;;;;;49.67;42.67;;;;;;;;5171232;27;10323;-81
2022/01/28 02:08:06;;;;;;;;;46.67;39.00;;;;;;;;5164185;27;8929;-81
2022/01/28 02:10:32;;;;;;;;;37.00;34.33;;;;;;;;5147887;27;14850;-81
2022/01/28 02:12:58;;;;;;;;;44.67;41.00;;;;;;;;5168738;27;14050;-80
2022/01/28 02:15:23;;;;;;;;;45.67;39.67;;;;;;;;5168535;27;13216;-81
2022/01/28 02:17:49;;;;;;;;;45.67;39.33;;;;;;;;5172047;27;12189;-80
2022/01/28 02:20:20;;;;;;;;;44.00;38.33;;;;;;;;5175610;27;8836;-81
2022/01/28 02:22:45;;;;;;;;;42.67;38.00;;;;;;;;5169275;27;10686;-80
2022/01/28 02:25:24;;;;;;;;;39.33;34.33;;;;;;;;5163043;27;11537;-82
2022/01/28 02:27:49;;;;;;;;;30.33;30.33;;;;;;;;5163468;27;13462;-81
2022/01/28 02:30:15;;;;;;;;;33.67;29.00;;;;;;;;5163100;27;9078;-79
2022/01/28 02:32:40;;;;;;;;;29.00;27.67;;;;;;;;5163010;27;12796;-79
2022/01/28 02:35:05;;;;;;;;;34.33;29.67;;;;;;;;5162215;27;14719;-80
2022/01/28 02:37:31;;;;;;;;;32.00;28.33;;;;;;;;5161553;27;12736;-79
2022/01/28 02:39:56;;;;;;;;;38.00;34.00;;;;;;;;5162307;27;11544;-80
2022/01/28 02:42:33;;;;;;;;;43.33;35.00;;;;;;;;5142455;27;13121;-80
2022/01/28 02:45:01;;;;;;;;;42.00;36.33;;;;;;;;5162073;27;12589;-80
2022/01/28 08:25:07;;;;;;;;;68.75;54.25;;;;;;;;5180526;27;78815;-69
2022/01/28 08:27:32;;;;;;;;;75.50;57.75;;;;;;;;5175940;27;22909;-70
2022/01/28 08:29:57;;;;;;;;;77.00;60.50;;;;;;;;5164241;27;12363;-71
2022/01/28 08:32:22;;;;;;;;;69.00;53.50;;;;;;;;5168900;27;13549;-77
2022/01/28 08:34:48;;;;;;;;;69.50;55.00;;;;;;;;5176841;27;11039;-75
2022/01/28 08:37:13;;;;;;;;;72.75;55.25;;;;;;;;5177029;27;10373;-74
2022/01/28 08:39:40;;;;;;;;;60.00;49.67;;;;;;;;5171529;27;13469;-75
2022/01/28 08:42:05;;;;;;;;;63.00;51.67;;;;;;;;5174332;27;13746;-73
2022/01/28 08:44:30;;;;;;;;;70.67;53.33;;;;;;;;5165303;27;9600;-72
2022/01/28 08:46:56;;;;;;;;;61.00;51.00;;;;;;;;5142528;22;13381;-79
2022/01/28 08:49:21;;;;;;;;;54.00;46.67;;;;;;;;5092565;28;15934;-79
2022/01/28 08:51:48;;;;;;;;;59.00;47.33;;;;;;;;5095301;28;13198;-79
2022/01/28 08:54:13;;;;;;;;;58.33;47.00;;;;;;;;5095771;28;13089;-80
2022/01/28 08:56:39;;;;;;;;;65.00;51.33;;;;;;;;5095268;28;11432;-79
2022/01/28 08:59:04;;;;;;;;;61.67;48.00;;;;;;;;5095733;28;14352;-77
2022/01/28 09:01:30;;;;;;;;;63.00;51.33;;;;;;;;5095311;28;12328;-79
2022/01/28 09:03:55;;;;;;;;;59.33;48.67;;;;;;;;5094751;28;12255;-80
2022/01/28 09:06:21;;;;;;;;;63.00;51.67;;;;;;;;5095038;28;13262;-76
2022/01/28 09:08:47;;;;;;;;;64.00;50.33;;;;;;;;5094848;28;12257;-74
2022/01/28 09:11:32;;;;;;;;;59.00;51.00;;;;;;;;5092871;28;14791;-75
2022/01/28 09:13:57;;;;;;;;;61.67;48.33;;;;;;;;5094100;28;13599;-75
2022/01/28 09:16:23;;;;;;;;;63.33;48.33;;;;;;;;5094210;28;13424;-77
2022/01/28 09:18:48;;;;;;;;;56.67;48.00;;;;;;;;5093456;28;9424;-75
2022/01/28 09:21:13;;;;;;;;;66.00;53.00;;;;;;;;5096754;28;13413;-75
2022/01/28 09:23:39;;;;;;;;;64.67;50.67;;;;;;;;5096086;27;12666;-80
2022/01/28 09:26:04;;;;;;;;;65.33;53.00;;;;;;;;5094797;28;11652;-76
2022/01/28 09:28:29;;;;;;;;;62.00;51.33;;;;;;;;5092738;28;13754;-76
2022/01/28 09:30:57;;;;;;;;;66.33;52.00;;;;;;;;5095081;28;11363;-78
2022/01/28 09:33:22;;;;;;;;;65.33;53.00;;;;;;;;5093911;28;11545;-77
2022/01/28 09:35:50;;;;;;;;;66.33;50.67;;;;;;;;5084886;28;8886;-79
2022/01/28 09:38:16;;;;;;;;;61.33;50.00;;;;;;;;5081575;28;11696;-80
2022/01/28 09:40:42;;;;;;;;;66.67;53.33;;;;;;;;5080582;28;11648;-77
2022/01/28 09:43:08;;;;;;;;;61.67;50.00;;;;;;;;5080249;28;12509;-75
2022/01/28 09:45:33;;;;;;;;;66.00;54.00;;;;;;;;5078939;28;11886;-75
2022/01/28 09:47:59;;;;;;;;;65.33;50.67;;;;;;;;5080159;28;10421;-75
2022/01/28 09:50:26;;;;;;;;;62.00;50.00;;;;;;;;5080872;28;11607;-79
2022/01/28 09:52:53;;;;;;;;;66.67;51.33;;;;;;;;5079168;28;11838;-79
2022/01/28 09:55:19;;;;;;;;;63.67;51.33;;;;;;;;5080697;28;11435;-76
2022/01/28 09:57:47;;;;;;;;;64.00;51.33;;;;;;;;5080158;28;8788;-69
2022/01/28 10:00:13;;;;;;;;;60.00;49.00;;;;;;;;5080516;28;9605;-73
2022/01/28 10:02:49;;;;;;;;;46.33;39.67;;;;;;;;5078006;28;13554;-72
2022/01/28 10:05:27;;;;;;;;;52.00;43.00;;;;;;;;5080236;28;13374;-72
2022/01/28 10:07:59;;;;;;;;;37.00;35.33;;;;;;;;5078540;28;14961;-71
2022/01/28 10:10:24;;;;;;;;;29.50;28.75;;;;;;;;5079472;28;13330;-73
2022/01/28 10:13:07;;;;;;;;;18.75;18.00;;;;;;;;5082601;28;12267;-70
2022/01/28 10:15:32;;;;;;;;;23.00;21.25;;;;;;;;5091339;28;13895;-70
2022/01/28 10:18:00;;;;;;;;;26.50;22.50;;;;;;;;5090308;28;15241;-71
2022/01/28 10:20:26;;;;;;;;;24.50;19.75;;;;;;;;5089807;28;11748;-72
2022/01/28 10:22:52;;;;;;;;;19.00;19.00;;;;;;;;5083234;28;12216;-71
2022/01/28 10:25:28;;;;;;;;;23.00;21.00;;;;;;;;5079921;28;13379;-73
2022/01/28 10:28:12;;;;;;;;;19.75;18.50;;;;;;;;5081132;28;10452;-74
2022/01/28 10:30:38;;;;;;;;;21.50;18.50;;;;;;;;5089834;28;13660;-73
2022/01/28 10:33:21;;;;;;;;;22.25;20.50;;;;;;;;5090803;28;12664;-73
2022/01/28 10:35:59;;;;;;;;;21.50;18.25;;;;;;;;5090657;28;11681;-71
2022/01/28 10:38:32;;;;;;;;;20.25;18.00;;;;;;;;5090097;28;12772;-73
2022/01/28 10:41:16;;;;;;;;;17.75;17.75;;;;;;;;5089047;28;12012;-76
2022/01/28 10:43:46;;;;;;;;;18.00;18.00;;;;;;;;5089818;28;13341;-77
2022/01/28 10:46:11;;;;;;;;;24.25;19.75;;;;;;;;5088020;28;11627;-75
2022/01/28 10:48:49;;;;;;;;;17.00;16.00;;;;;;;;5084468;28;15589;-75
2022/01/28 10:51:15;;;;;;;;;13.50;13.25;;;;;;;;5086748;28;14140;-74
2022/01/28 10:53:40;;;;;;;;;11.25;11.25;;;;;;;;5088985;28;11533;-74
2022/01/28 10:56:11;;;;;;;;;13.25;11.00;;;;;;;;5085907;28;10822;-75
2022/01/28 10:58:39;;;;;;;;;15.50;15.50;;;;;;;;5088636;28;11492;-75
2022/01/28 11:01:04;;;;;;;;;17.75;16.50;;;;;;;;5089434;28;11515;-73
2022/01/28 11:03:30;;;;;;;;;17.50;17.25;;;;;;;;5087915;28;11585;-75
2022/01/28 11:05:59;;;;;;;;;19.50;16.25;;;;;;;;5089994;28;10337;-73
2022/01/28 11:08:31;;;;;;;;;18.00;16.75;;;;;;;;5089965;28;8804;-74
2022/01/28 11:10:58;;;;;;;;;20.50;18.25;;;;;;;;5091869;28;11614;-74
2022/01/28 11:13:23;;;;;;;;;19.00;18.75;;;;;;;;5091829;28;12459;-73
2022/01/28 11:15:49;;;;;;;;;18.00;16.50;;;;;;;;5085495;28;12217;-70
2022/01/28 11:18:14;;;;;;;;;22.75;18.00;;;;;;;;5090942;28;12025;-70
2022/01/28 11:20:49;;;;;;;;;17.75;17.25;;;;;;;;5098783;28;13649;-69
2022/01/28 11:23:17;;;;;;;;;20.75;19.50;;;;;;;;5099004;28;13479;-70
2022/01/28 11:26:03;;;;;;;;;21.25;18.00;;;;;;;;5099226;28;13290;-73
2022/01/28 11:28:39;;;;;;;;;16.75;16.00;;;;;;;;5099248;28;11928;-75
2022/01/28 11:31:04;;;;;;;;;15.50;15.00;;;;;;;;5098243;28;11645;-76
2022/01/28 11:33:42;;;;;;;;;20.00;15.50;;;;;;;;5097340;28;10694;-76
2022/01/28 11:36:07;;;;;;;;;12.50;12.50;;;;;;;;5091539;28;13590;-77
2022/01/28 11:38:38;;;;;;;;;14.00;12.00;;;;;;;;5099422;28;12520;-75
2022/01/28 11:41:14;;;;;;;;;13.67;12.00;;;;;;;;5097534;28;13704;-72
2022/01/28 11:43:44;;;;;;;;;10.00;10.00;;;;;;;;5099246;28;10393;-72
2022/01/28 11:46:09;;;;;;;;;14.75;13.75;;;;;;;;5098195;28;10884;-72
2022/01/28 11:48:55;;;;;;;;;9.00;9.00;;;;;;;;5098285;28;11384;-71
2022/01/28 11:51:21;;;;;;;;;15.25;13.50;;;;;;;;5072983;28;22477;-74
2022/01/28 11:53:56;;;;;;;;;15.00;11.75;;;;;;;;5077579;28;22625;-72
2022/01/28 11:56:22;;;;;;;;;15.00;12.25;;;;;;;;5078592;28;10422;-72
2022/01/28 11:58:54;;;;;;;;;12.75;12.50;;;;;;;;5077866;28;10493;-72
2022/01/28 12:01:45;;;;;;;;;14.00;13.00;;;;;;;;5077968;28;11645;-71
2022/01/28 12:04:30;;;;;;;;;11.75;11.75;;;;;;;;5078214;28;11676;-75
2022/01/28 12:06:55;;;;;;;;;13.75;13.75;;;;;;;;5078542;28;12008;-74
2022/01/28 12:09:23;;;;;;;;;14.25;13.25;;;;;;;;5078763;28;11454;-74
2022/01/28 12:11:48;;;;;;;;;16.25;16.00;;;;;;;;5077699;28;10619;-74
2022/01/28 12:14:14;;;;;;;;;13.25;12.00;;;;;;;;5077510;28;11564;-74
2022/01/28 12:16:46;;;;;;;;;15.50;14.50;;;;;;;;5092142;28;9603;-73
2022/01/28 12:19:15;;;;;;;;;17.50;14.50;;;;;;;;5096541;28;12112;-72
2022/01/28 12:22:00;;;;;;;;;14.75;13.00;;;;;;;;5096195;28;11419;-72
2022/01/28 12:24:26;;;;;;;;;14.25;14.25;;;;;;;;5098287;28;11541;-70
2022/01/28 12:27:08;;;;;;;;;17.00;16.00;;;;;;;;5088692;28;11584;-71
2022/01/28 12:29:33;;;;;;;;;19.50;17.00;;;;;;;;5087270;28;12682;-74
2022/01/28 12:31:59;;;;;;;;;15.50;14.25;;;;;;;;5082850;28;11521;-72
2022/01/28 12:34:25;;;;;;;;;19.50;15.00;;;;;;;;5076113;28;13833;-73
2022/01/28 12:36:51;;;;;;;;;18.25;15.50;;;;;;;;5090778;28;11877;-76
2022/01/28 12:39:32;;;;;;;;;14.50;14.00;;;;;;;;5098103;28;11637;-73
2022/01/28 12:42:21;;;;;;;;;16.75;13.00;;;;;;;;5095996;28;12138;-73
2022/01/28 12:44:51;;;;;;;;;21.75;17.00;;;;;;;;5094988;28;11493;-75
2022/01/28 12:47:17;;;;;;;;;22.50;17.50;;;;;;;;5095285;28;12344;-76
2022/01/28 12:49:43;;;;;;;;;21.00;18.25;;;;;;;;5096652;28;11991;-74
2022/01/28 12:52:09;;;;;;;;;22.25;16.75;;;;;;;;5097061;28;12787;-73
2022/01/28 12:54:45;;;;;;;;;17.00;16.00;;;;;;;;5097024;28;11520;-74
2022/01/28 12:57:11;;;;;;;;;15.00;13.75;;;;;;;;5097718;28;13331;-74
2022/01/28 12:59:37;;;;;;;;;14.00;12.50;;;;;;;;5097176;28;11630;-76
2022/01/28 13:02:02;;;;;;;;;12.75;11.50;;;;;;;;5097467;28;11534;-74
2022/01/28 13:04:51;;;;;;;;;12.00;10.75;;;;;;;;5095747;28;12956;-75
2022/01/28 13:09:51;;;;;;;;;13.00;11.25;;;;;;;;5098477;28;11621;-75
2022/01/28 13:12:22;;;;;;;;;10.50;9.00;;;;;;;;5101142;28;11634;-74
2022/01/28 13:14:47;;;;;;;;;17.00;13.75;;;;;;;;5100656;28;21646;-73
2022/01/28 13:17:17;;;;;;;;;10.50;10.50;;;;;;;;5099740;28;22603;-75
2022/01/28 13:19:43;;;;;;;;;15.50;14.00;;;;;;;;5100928;28;11602;-73
2022/01/28 13:22:08;;;;;;;;;16.25;14.75;;;;;;;;5100975;28;11489;-74
2022/01/28 13:24:33;;;;;;;;;15.00;13.00;;;;;;;;5099405;28;11857;-72
2022/01/28 13:27:03;;;;;;;;;18.50;15.75;;;;;;;;5100417;28;11369;-77
2022/01/28 13:29:38;;;;;;;;;16.75;15.75;;;;;;;;5101169;28;11453;-73
2022/01/28 13:32:06;;;;;;;;;14.00;12.50;;;;;;;;5099158;28;11600;-73
2022/01/28 13:34:50;;;;;;;;;14.50;14.50;;;;;;;;5100611;28;11531;-75
2022/01/28 13:37:31;;;;;;;;;14.75;11.25;;;;;;;;5100044;28;11588;-74
2022/01/28 13:39:57;;;;;;;;;11.50;11.50;;;;;;;;5101435;28;12343;-75
2022/01/28 13:42:23;;;;;;;;;16.50;15.00;;;;;;;;5100633;28;12993;-76
2022/01/28 13:44:49;;;;;;;;;12.00;11.50;;;;;;;;5098558;28;13523;-74
2022/01/28 13:47:17;;;;;;;;;15.25;15.25;;;;;;;;5099439;28;11726;-75
2022/01/28 13:49:42;;;;;;;;;14.00;11.75;;;;;;;;5100215;28;11442;-74
2022/01/28 13:52:07;;;;;;;;;14.00;12.00;;;;;;;;5100478;28;12239;-76
2022/01/28 13:54:33;;;;;;;;;14.00;12.00;;;;;;;;5100584;28;9098;-74
2022/01/28 13:57:04;;;;;;;;;14.00;14.00;;;;;;;;5100037;28;8825;-74
2022/01/28 13:59:30;;;;;;;;;16.25;16.00;;;;;;;;5100624;28;8782;-73
2022/01/28 14:01:59;;;;;;;;;15.00;15.00;;;;;;;;5098728;28;11624;-74
2022/01/28 14:04:33;;;;;;;;;17.00;15.00;;;;;;;;5099722;28;11507;-74
2022/01/28 14:07:15;;;;;;;;;14.50;12.50;;;;;;;;5099775;28;11551;-74
2022/01/28 14:09:46;;;;;;;;;7.25;7.00;;;;;;;;5099626;28;13419;-74
2022/01/28 14:17:22;;;;;;;;;2.25;2.00;;;;;;;;6074704;22;12161;-77
2022/01/28 14:19:48;;;;;;;;;2.75;2.75;;;;;;;;5097480;28;11472;-77
2022/01/28 14:22:13;;;;;;;;;7.00;3.00;;;;;;;;5100105;28;8800;-76
2022/01/28 14:24:39;;;;;;;;;5.00;2.50;;;;;;;;5100351;28;11629;-79
2022/01/28 14:32:07;;;;;;;;;3.00;3.00;;;;;;;;5100073;28;11417;-77
2022/01/28 14:34:33;;;;;;;;;2.00;2.00;;;;;;;;5100522;28;11340;-79
2022/01/28 14:36:58;;;;;;;;;4.50;2.00;;;;;;;;5101017;28;11365;-77
2022/01/28 14:39:24;;;;;;;;;2.00;2.00;;;;;;;;5100644;28;9300;-77
2022/01/28 14:41:50;;;;;;;;;2.50;1.75;;;;;;;;5100924;28;8794;-78
2022/01/28 14:44:16;;;;;;;;;2.00;2.00;;;;;;;;5100485;28;10990;-78
2022/01/28 14:46:41;;;;;;;;;3.50;1.75;;;;;;;;5096481;28;11345;-77
2022/01/28 14:49:07;;;;;;;;;2.00;2.00;;;;;;;;5099509;28;11712;-77
2022/01/28 14:51:37;;;;;;;;;1.00;1.00;;;;;;;;5098623;28;11450;-77
2022/01/28 14:54:03;;;;;;;;;6.50;2.00;;;;;;;;5099608;28;9085;-77
2022/01/28 14:56:28;;;;;;;;;5.50;2.25;;;;;;;;5099930;28;11806;-72
2022/01/28 14:58:55;;;;;;;;;1.50;1.00;;;;;;;;5099653;28;11343;-79
2022/01/28 15:01:20;;;;;;;;;0.00;0.00;;;;;;;;5099912;28;11895;-77
2022/01/28 15:03:46;;;;;;;;;1.00;1.00;;;;;;;;5099488;28;11512;-76
2022/01/28 15:06:15;;;;;;;;;2.00;2.00;;;;;;;;5100165;28;8784;-78
2022/01/28 15:08:44;;;;;;;;;2.25;1.00;;;;;;;;5097808;28;8834;-79
2022/01/28 15:11:19;;;;;;;;;2.00;2.00;;;;;;;;5096713;28;11400;-78
2022/01/28 15:13:45;;;;;;;;;1.00;1.00;;;;;;;;5097131;28;11388;-76
2022/01/28 15:16:10;;;;;;;;;1.00;1.00;;;;;;;;5096208;28;11388;-78
2022/01/28 15:18:35;;;;;;;;;1.75;1.75;;;;;;;;5097418;28;8816;-78
2022/01/28 15:21:01;;;;;;;;;1.25;1.25;;;;;;;;5098309;28;8826;-77
2022/01/28 15:23:26;;;;;;;;;1.00;1.00;;;;;;;;5098383;28;8816;-78
2022/01/28 15:25:51;;;;;;;;;1.00;1.00;;;;;;;;5098493;28;8776;-77
2022/01/28 15:28:19;;;;;;;;;1.00;1.00;;;;;;;;5098719;28;8788;-79
2022/01/28 15:36:12;;;;;;;;;3.50;1.50;;;;;;;;5096702;28;11276;-75
2022/01/28 15:38:38;;;;;;;;;2.50;2.50;;;;;;;;5079060;28;13354;-73
2022/01/28 15:41:04;;;;;;;;;3.50;1.50;;;;;;;;5098264;28;8908;-80
2022/01/28 15:43:30;;;;;;;;;0.25;0.25;;;;;;;;5098646;28;8797;-81
2022/01/28 15:45:55;;;;;;;;;0.00;0.00;;;;;;;;5098653;28;11591;-81
2022/01/28 15:48:20;;;;;;;;;1.25;1.25;;;;;;;;5096784;28;8835;-81
2022/01/28 15:50:52;;;;;;;;;1.75;1.25;;;;;;;;5080808;28;13140;-85
2022/01/28 15:53:17;;;;;;;;;1.50;0.50;;;;;;;;5098762;28;8796;-84
2022/01/28 15:55:51;;;;;;;;;2.50;2.00;;;;;;;;5098784;28;11381;-80
2022/01/28 15:58:16;;;;;;;;;1.00;1.00;;;;;;;;5081109;28;11668;-83
2022/01/28 16:00:42;;;;;;;;;1.00;1.00;;;;;;;;5099148;28;11420;-79
2022/01/28 16:03:08;;;;;;;;;1.25;1.25;;;;;;;;5098380;28;8803;-81
2022/01/28 16:05:34;;;;;;;;;5.50;3.00;;;;;;;;5099899;28;8924;-81
2022/01/28 16:07:59;;;;;;;;;6.00;3.50;;;;;;;;5099427;28;11378;-79
2022/01/28 16:10:34;;;;;;;;;3.00;3.00;;;;;;;;5106501;28;11473;-82
2022/01/28 16:13:13;;;;;;;;;5.75;3.00;;;;;;;;5102164;28;11455;-79
2022/01/28 16:18:10;;;;;;;;;4.00;4.00;;;;;;;;5094153;28;11410;-83
2022/01/28 16:20:36;;;;;;;;;6.25;5.75;;;;;;;;5099252;28;12157;-78
2022/01/28 16:23:02;;;;;;;;;9.00;8.50;;;;;;;;5080415;28;14632;-78
2022/01/28 16:25:28;;;;;;;;;7.00;7.00;;;;;;;;5080750;28;11446;-78
2022/01/28 16:27:53;;;;;;;;;6.75;6.00;;;;;;;;5099368;28;12186;-78
2022/01/28 16:30:18;;;;;;;;;10.75;8.25;;;;;;;;5099832;28;10448;-78
2022/01/28 16:32:44;;;;;;;;;11.75;7.25;;;;;;;;5100695;28;21381;-77
2022/01/28 16:35:09;;;;;;;;;8.75;8.00;;;;;;;;5101926;28;9528;-77
2022/01/28 16:37:35;;;;;;;;;5.50;5.50;;;;;;;;5098273;28;21355;-77
2022/01/28 16:40:06;;;;;;;;;6.00;6.00;;;;;;;;5100065;28;11816;-78
2022/01/28 16:42:39;;;;;;;;;10.00;7.00;;;;;;;;5081423;28;11705;-78
2022/01/28 16:45:05;;;;;;;;;11.00;11.00;;;;;;;;5081258;28;23334;-77
2022/01/28 16:47:30;;;;;;;;;10.00;6.75;;;;;;;;5100692;28;21743;-78
2022/01/28 16:49:56;;;;;;;;;6.25;5.75;;;;;;;;5101051;28;21399;-77
2022/01/28 16:52:34;;;;;;;;;7.00;6.00;;;;;;;;5098864;28;21990;-77
2022/01/28 16:55:04;;;;;;;;;10.25;9.00;;;;;;;;5097913;28;12500;-78
2022/01/28 16:57:30;;;;;;;;;9.50;8.75;;;;;;;;5101412;28;21906;-78
2022/01/28 16:59:56;;;;;;;;;8.75;8.25;;;;;;;;5100359;28;21308;-77
2022/01/28 17:02:21;;;;;;;;;10.00;8.50;;;;;;;;5101868;28;11001;-77
2022/01/28 17:04:47;;;;;;;;;7.00;7.00;;;;;;;;5100977;28;22001;-77
2022/01/28 17:07:12;;;;;;;;;7.25;5.50;;;;;;;;5101383;28;21317;-78
2022/01/28 17:09:51;;;;;;;;;4.50;4.00;;;;;;;;5101442;28;10288;-78
2022/01/28 17:14:51;;;;;;;;;8.50;6.00;;;;;;;;5100342;28;11379;-78
2022/01/28 17:17:17;;;;;;;;;7.00;5.75;;;;;;;;5081744;28;11454;-79
2022/01/28 17:19:42;;;;;;;;;7.00;6.00;;;;;;;;5100583;28;11375;-78
2022/01/28 17:22:07;;;;;;;;;8.00;6.00;;;;;;;;5101275;28;8811;-77
2022/01/28 17:24:33;;;;;;;;;5.00;5.00;;;;;;;;5100718;28;8788;-77
2022/01/28 17:26:58;;;;;;;;;5.00;3.25;;;;;;;;5107119;28;8843;-78
2022/01/28 17:29:24;;;;;;;;;5.25;3.00;;;;;;;;5102091;28;9476;-78
2022/01/28 17:31:49;;;;;;;;;4.00;4.00;;;;;;;;5101729;28;8930;-78
2022/01/28 17:34:14;;;;;;;;;5.75;5.75;;;;;;;;5102231;28;10536;-76
2022/01/28 17:36:40;;;;;;;;;10.25;5.00;;;;;;;;5101431;28;11374;-78
2022/01/28 17:39:09;;;;;;;;;4.00;3.00;;;;;;;;5101408;28;22693;-77
2022/01/28 17:41:38;;;;;;;;;4.00;2.00;;;;;;;;5100832;28;22504;-77
2022/01/28 17:44:04;;;;;;;;;4.50;4.00;;;;;;;;5107148;28;11419;-82
2022/01/28 17:46:29;;;;;;;;;5.00;5.00;;;;;;;;5107958;28;11391;-84
2022/01/28 17:48:54;;;;;;;;;5.50;5.50;;;;;;;;5110790;28;10325;-83
2022/01/28 17:51:19;;;;;;;;;6.75;2.75;;;;;;;;5093539;28;10697;-78
2022/01/28 17:53:45;;;;;;;;;5.75;3.50;;;;;;;;5111376;28;11293;-85
2022/01/28 17:56:14;;;;;;;;;7.00;5.75;;;;;;;;5100934;28;11446;-82
2022/01/28 17:58:39;;;;;;;;;9.25;9.25;;;;;;;;5102655;28;11578;-81
2022/01/28 18:01:06;;;;;;;;;6.50;6.00;;;;;;;;5110305;28;11513;-82
2022/01/28 18:03:31;;;;;;;;;3.00;2.00;;;;;;;;5101679;28;11454;-84
2022/01/28 18:05:59;;;;;;;;;5.00;5.00;;;;;;;;5102567;28;11472;-83
2022/01/28 18:08:25;;;;;;;;;6.25;4.50;;;;;;;;5102086;28;9603;-84
2022/01/28 18:10:50;;;;;;;;;5.00;5.00;;;;;;;;5101704;28;12551;-84
2022/01/28 18:13:15;;;;;;;;;6.00;5.00;;;;;;;;5101350;28;11599;-84
2022/01/28 18:15:41;;;;;;;;;5.75;5.75;;;;;;;;5101485;28;8895;-82
2022/01/28 18:18:06;;;;;;;;;5.25;5.00;;;;;;;;5100819;28;11578;-82
2022/01/28 18:20:31;;;;;;;;;5.25;4.50;;;;;;;;5107727;28;8824;-82
2022/01/28 18:23:00;;;;;;;;;6.75;6.00;;;;;;;;5129996;28;9038;-84
2022/01/28 18:25:25;;;;;;;;;7.50;6.00;;;;;;;;5128971;28;11392;-79
2022/01/28 18:27:50;;;;;;;;;6.00;6.00;;;;;;;;5107600;28;11477;-78
2022/01/28 18:30:16;;;;;;;;;7.25;5.25;;;;;;;;5125115;28;8967;-77
2022/01/28 18:32:41;;;;;;;;;7.25;5.00;;;;;;;;5123753;28;11723;-79
2022/01/28 18:35:07;;;;;;;;;7.75;6.75;;;;;;;;5123036;28;8813;-76
2022/01/28 18:37:32;;;;;;;;;6.00;5.00;;;;;;;;5121508;28;10255;-77
2022/01/28 18:39:58;;;;;;;;;7.50;5.00;;;;;;;;5094555;28;11634;-76
2022/01/28 18:42:37;;;;;;;;;12.75;11.25;;;;;;;;5105754;28;8837;-78
2022/01/28 18:45:04;;;;;;;;;10.00;9.00;;;;;;;;5101787;28;22446;-77
2022/01/28 18:47:29;;;;;;;;;9.75;9.75;;;;;;;;5098622;28;22764;-80
2022/01/28 18:49:55;;;;;;;;;12.75;11.00;;;;;;;;5098619;28;21819;-81
2022/01/28 18:52:20;;;;;;;;;11.00;11.00;;;;;;;;5117917;28;22788;-76
2022/01/28 18:54:46;;;;;;;;;9.25;9.25;;;;;;;;5120897;28;8861;-80
2022/01/28 18:57:12;;;;;;;;;7.75;7.25;;;;;;;;5120178;28;22579;-78
2022/01/28 18:59:37;;;;;;;;;8.75;8.75;;;;;;;;5120385;28;9523;-79
2022/01/28 19:02:03;;;;;;;;;6.25;6.25;;;;;;;;5119823;28;10274;-77
2022/01/28 19:04:28;;;;;;;;;9.25;8.00;;;;;;;;5119268;28;10271;-74
2022/01/28 19:06:54;;;;;;;;;9.00;9.00;;;;;;;;5118974;27;11463;-74
2022/01/28 19:09:20;;;;;;;;;14.25;11.25;;;;;;;;5118369;28;10132;-74
2022/01/28 19:11:47;;;;;;;;;7.00;2.00;;;;;;;;5115945;28;23475;-74
2022/01/28 19:14:12;;;;;;;;;15.25;13.00;;;;;;;;5097201;28;22394;-73
2022/01/28 19:16:37;;;;;;;;;16.75;11.25;;;;;;;;5100223;28;22426;-77
2022/01/28 19:19:03;;;;;;;;;12.50;12.00;;;;;;;;5114116;28;11346;-74
2022/01/28 19:21:28;;;;;;;;;9.75;9.00;;;;;;;;5097999;28;11407;-73
2022/01/28 19:23:57;;;;;;;;;21.25;16.00;;;;;;;;5097073;28;23355;-74
2022/01/28 19:26:22;;;;;;;;;27.50;19.00;;;;;;;;5096752;28;22552;-74
2022/01/28 19:28:47;;;;;;;;;18.00;16.00;;;;;;;;5097095;28;11545;-74
2022/01/28 19:31:13;;;;;;;;;16.25;15.50;;;;;;;;5097715;28;13694;-72
2022/01/28 19:33:38;;;;;;;;;17.75;16.00;;;;;;;;5097363;28;11430;-73
2022/01/28 19:36:04;;;;;;;;;17.00;16.00;;;;;;;;5098542;28;11412;-75
2022/01/28 19:38:30;;;;;;;;;20.75;17.75;;;;;;;;5098370;28;8819;-73
2022/01/28 19:40:55;;;;;;;;;21.50;18.75;;;;;;;;5098120;28;13296;-72
2022/01/28 19:43:20;;;;;;;;;17.50;13.75;;;;;;;;5098183;28;10350;-77
2022/01/28 19:45:48;;;;;;;;;19.75;15.25;;;;;;;;5098622;28;9531;-77
2022/01/28 19:48:15;;;;;;;;;18.75;17.75;;;;;;;;5096881;28;10500;-77
2022/01/28 19:50:41;;;;;;;;;25.25;24.00;;;;;;;;5096991;28;11414;-76
2022/01/28 19:53:06;;;;;;;;;24.25;23.50;;;;;;;;5097154;28;13302;-76
2022/01/28 19:55:31;;;;;;;;;25.00;21.00;;;;;;;;5097100;28;11548;-76
2022/01/28 19:57:56;;;;;;;;;27.67;26.33;;;;;;;;5096974;28;11880;-75
2022/01/28 20:00:22;;;;;;;;;28.00;24.33;;;;;;;;5096776;28;11550;-75
2022/01/28 20:02:47;;;;;;;;;21.00;19.50;;;;;;;;5095583;28;10382;-75
2022/01/28 20:05:13;;;;;;;;;11.50;11.50;;;;;;;;5095763;28;12209;-75
2022/01/28 20:07:39;;;;;;;;;14.75;14.75;;;;;;;;5094889;28;12324;-76
2022/01/28 20:10:04;;;;;;;;;22.25;16.25;;;;;;;;5095284;28;11503;-75
2022/01/28 20:12:30;;;;;;;;;25.00;20.00;;;;;;;;5095377;28;12505;-74
2022/01/28 20:14:57;;;;;;;;;24.00;21.67;;;;;;;;5096106;28;12578;-80
2022/01/28 20:17:23;;;;;;;;;34.67;26.33;;;;;;;;5096322;28;12741;-74
2022/01/28 20:19:49;;;;;;;;;27.00;24.00;;;;;;;;5102560;28;13324;-72
2022/01/28 20:22:14;;;;;;;;;32.00;26.33;;;;;;;;5108060;28;13319;-73
2022/01/28 20:24:40;;;;;;;;;18.33;16.67;;;;;;;;5107518;28;13389;-71
2022/01/28 20:27:05;;;;;;;;;26.67;23.00;;;;;;;;5105814;28;13380;-72
2022/01/28 20:29:31;;;;;;;;;32.67;28.33;;;;;;;;5106021;28;14415;-72
2022/01/28 20:31:56;;;;;;;;;24.33;23.67;;;;;;;;5107386;28;13792;-75
2022/01/28 20:34:21;;;;;;;;;27.33;25.67;;;;;;;;5110357;28;14352;-75
2022/01/28 20:36:46;;;;;;;;;27.00;23.67;;;;;;;;5115529;28;10193;-74
2022/01/28 20:39:13;;;;;;;;;14.33;14.33;;;;;;;;5097165;28;9530;-74
2022/01/28 20:41:39;;;;;;;;;27.00;24.67;;;;;;;;5097691;28;13653;-75
2022/01/28 20:44:04;;;;;;;;;27.33;22.33;;;;;;;;5097738;28;13738;-75
2022/01/28 20:46:29;;;;;;;;;19.67;17.00;;;;;;;;5098150;28;10367;-75
2022/01/28 20:48:55;;;;;;;;;27.67;24.00;;;;;;;;5096751;28;13750;-76
2022/01/28 20:51:20;;;;;;;;;25.00;24.67;;;;;;;;5097965;28;10627;-76
2022/01/28 20:53:45;;;;;;;;;31.00;27.33;;;;;;;;5078522;28;13902;-76
2022/01/28 20:56:11;;;;;;;;;31.00;28.33;;;;;;;;5097121;28;13473;-76
2022/01/28 20:58:36;;;;;;;;;37.33;34.00;;;;;;;;5097626;28;9527;-77
2022/01/28 21:01:01;;;;;;;;;36.00;32.33;;;;;;;;5097020;28;12207;-75
2022/01/28 21:03:27;;;;;;;;;36.33;27.67;;;;;;;;5097306;28;11562;-75
2022/01/28 21:05:54;;;;;;;;;33.67;26.33;;;;;;;;5096919;28;12430;-77
2022/01/28 21:08:20;;;;;;;;;31.33;26.33;;;;;;;;5097192;28;11643;-76
2022/01/28 21:10:47;;;;;;;;;23.33;23.33;;;;;;;;5097613;28;9102;-75
2022/01/28 21:13:12;;;;;;;;;23.00;23.00;;;;;;;;5097249;28;10859;-75
2022/01/28 21:15:38;;;;;;;;;29.33;24.67;;;;;;;;5097978;28;11426;-76
2022/01/28 21:18:03;;;;;;;;;25.00;20.00;;;;;;;;5102443;28;11375;-76
2022/01/28 21:20:28;;;;;;;;;31.00;27.00;;;;;;;;5097768;28;11558;-77
2022/01/28 21:22:54;;;;;;;;;28.67;23.33;;;;;;;;5097857;28;11530;-75
2022/01/28 21:25:19;;;;;;;;;31.33;30.67;;;;;;;;5098435;28;13784;-76
2022/01/28 21:27:45;;;;;;;;;28.00;23.33;;;;;;;;5097149;28;13431;-75
2022/01/28 21:30:10;;;;;;;;;25.00;23.67;;;;;;;;5097152;28;13507;-76
2022/01/28 21:32:36;;;;;;;;;29.00;25.33;;;;;;;;5099619;28;11615;-75
2022/01/28 21:35:01;;;;;;;;;30.67;28.00;;;;;;;;5099545;28;11418;-75
2022/01/28 21:37:26;;;;;;;;;34.67;26.33;;;;;;;;5099752;28;13288;-75
2022/01/28 21:39:52;;;;;;;;;27.67;25.33;;;;;;;;5097392;28;11574;-75
2022/01/28 21:42:17;;;;;;;;;31.33;28.33;;;;;;;;5099638;28;10367;-75
2022/01/28 21:44:42;;;;;;;;;35.67;30.67;;;;;;;;5100536;28;12444;-76
2022/01/28 21:47:08;;;;;;;;;33.67;31.67;;;;;;;;5100712;28;12526;-76
2022/01/28 21:49:33;;;;;;;;;36.33;34.00;;;;;;;;5101171;28;8800;-73
2022/01/28 21:51:58;;;;;;;;;40.33;36.00;;;;;;;;5101159;28;11624;-75